Time;durP1;ratioP1;P1;durP2;ratioP2;P2;SDS_P1;SDS_P2;PMS_P1;PMS_P2;Temp;Humidity;BMP_temperature;BMP_pressure;BME280_temperature;BME280_humidity;BME280_pressure;Samples;Min_cycle;Max_cycle;Signal;HPM_P1;HPM_P2
2023/03/11 00:02:09;;;;;;;0.70;0.40;;;15.50;70.50;;;;;;5036941;28;20025;-70
2023/03/11 00:04:35;;;;;;;1.35;0.30;;;15.50;70.50;;;;;;5035523;28;20033;-70
2023/03/11 00:07:01;;;;;;;1.83;0.40;;;15.50;70.60;;;;;;5036789;28;20032;-70
2023/03/11 00:09:26;;;;;;;0.45;0.30;;;15.50;70.70;;;;;;5035552;28;20032;-70
2023/03/11 00:11:52;;;;;;;0.70;0.43;;;15.50;70.80;;;;;;5036665;28;20025;-70
2023/03/11 00:14:17;;;;;;;0.63;0.35;;;15.50;70.80;;;;;;5035172;28;20025;-70
2023/03/11 00:16:43;;;;;;;0.43;0.30;;;15.40;70.80;;;;;;5036807;28;20028;-70
2023/03/11 00:19:09;;;;;;;0.73;0.50;;;15.50;71.00;;;;;;5036627;28;20036;-70
2023/03/11 00:21:35;;;;;;;1.10;0.20;;;15.50;71.00;;;;;;5035198;28;20032;-70
2023/03/11 00:24:02;;;;;;;0.30;0.30;;;15.40;71.10;;;;;;5035444;28;20401;-70
2023/03/11 00:26:28;;;;;;;1.85;0.40;;;15.50;71.10;;;;;;5036405;28;20032;-71
2023/03/11 00:28:54;;;;;;;0.95;0.40;;;15.40;71.30;;;;;;5035042;28;20029;-70
2023/03/11 00:31:20;;;;;;;0.40;0.30;;;15.40;71.20;;;;;;5035126;28;20053;-70
2023/03/11 00:33:46;;;;;;;0.30;0.17;;;15.40;71.20;;;;;;5034992;28;20029;-70
2023/03/11 00:36:30;;;;;;;0.57;0.30;;;15.40;71.40;;;;;;5035161;28;20100;-70
2023/03/11 00:38:56;;;;;;;1.00;0.40;;;15.40;71.40;;;;;;5035222;28;20061;-70
2023/03/11 00:41:22;;;;;;;0.30;0.30;;;15.40;71.40;;;;;;5035017;28;20519;-70
2023/03/11 00:43:48;;;;;;;0.43;0.43;;;15.40;71.40;;;;;;5056333;28;20048;-70
2023/03/11 00:46:13;;;;;;;0.30;0.30;;;15.40;71.40;;;;;;5054761;28;20512;-70
2023/03/11 00:48:39;;;;;;;0.55;0.30;;;15.40;71.60;;;;;;5054554;28;20400;-71
2023/03/11 00:51:06;;;;;;;0.20;0.20;;;15.40;71.50;;;;;;5055621;28;20049;-70
2023/03/11 00:53:32;;;;;;;0.45;0.30;;;15.40;71.50;;;;;;5054846;28;20028;-70
2023/03/11 00:55:57;;;;;;;0.30;0.30;;;15.40;71.50;;;;;;5055750;28;20032;-70
2023/03/11 00:58:27;;;;;;;0.75;0.40;;;15.40;71.50;;;;;;5054448;28;20120;-70
2023/03/11 01:00:52;;;;;;;0.25;0.20;;;15.40;71.50;;;;;;5055861;28;20029;-70
2023/03/11 01:03:18;;;;;;;0.30;0.30;;;15.40;71.50;;;;;;5037873;28;20025;-70
2023/03/11 01:05:43;;;;;;;0.70;0.55;;;15.40;71.60;;;;;;5037786;28;20033;-70
2023/03/11 01:08:09;;;;;;;0.22;0.22;;;15.40;71.50;;;;;;5055030;28;20071;-70
2023/03/11 01:10:35;;;;;;;0.35;0.35;;;15.40;71.50;;;;;;5054216;28;20086;-70
2023/03/11 01:13:01;;;;;;;0.28;0.20;;;15.30;71.50;;;;;;5037570;28;20393;-70
2023/03/11 01:15:34;;;;;;;0.20;0.20;;;15.40;71.60;;;;;;5054310;28;20035;-70
2023/03/11 01:18:00;;;;;;;1.95;0.30;;;15.40;71.50;;;;;;5037901;28;20056;-70
2023/03/11 01:20:26;;;;;;;0.35;0.20;;;15.40;71.60;;;;;;5037606;28;20056;-70
2023/03/11 01:22:51;;;;;;;0.20;0.20;;;15.40;71.60;;;;;;5037632;28;20021;-70
2023/03/11 01:25:18;;;;;;;0.38;0.20;;;15.40;71.60;;;;;;5054199;28;20025;-71
2023/03/11 01:27:44;;;;;;;1.42;0.30;;;15.30;71.70;;;;;;5053662;28;20025;-71
2023/03/11 01:30:17;;;;;;;2.90;0.20;;;15.30;71.70;;;;;;5055321;28;20025;-71
2023/03/11 01:32:42;;;;;;;0.65;0.20;;;15.30;71.70;;;;;;5038277;28;20029;-70
2023/03/11 01:35:11;;;;;;;0.20;0.20;;;15.30;71.80;;;;;;5055101;28;20071;-70
2023/03/11 01:37:36;;;;;;;1.67;0.30;;;15.30;71.70;;;;;;5037357;28;20029;-70
2023/03/11 01:40:02;;;;;;;0.40;0.30;;;15.30;71.70;;;;;;5053586;28;20036;-70
2023/03/11 01:42:28;;;;;;;0.25;0.25;;;15.30;71.80;;;;;;5053732;28;20025;-71
2023/03/11 01:44:54;;;;;;;0.50;0.30;;;15.30;71.70;;;;;;5053750;28;20028;-70
2023/03/11 01:47:33;;;;;;;0.30;0.30;;;15.30;71.70;;;;;;5020649;28;20089;-71
2023/03/11 01:49:59;;;;;;;0.30;0.30;;;15.30;71.60;;;;;;5086421;28;20182;-70
2023/03/11 01:52:24;;;;;;;0.32;0.30;;;15.30;71.70;;;;;;5070086;28;20385;-71
2023/03/11 01:54:50;;;;;;;1.23;0.32;;;15.30;71.70;;;;;;5070054;28;20036;-71
2023/03/11 01:57:16;;;;;;;0.85;0.20;;;15.30;71.70;;;;;;5086814;28;20116;-70
2023/03/11 01:59:49;;;;;;;0.25;0.25;;;15.30;71.70;;;;;;5086765;28;20104;-70
2023/03/11 02:02:30;;;;;;;0.20;0.20;;;15.30;71.70;;;;;;5069707;28;20128;-70
2023/03/11 02:04:57;;;;;;;0.20;0.20;;;15.30;71.70;;;;;;5053091;28;20112;-70
2023/03/11 02:07:22;;;;;;;1.00;0.30;;;15.30;71.70;;;;;;5086707;28;20083;-70
2023/03/11 02:09:48;;;;;;;0.30;0.30;;;15.30;71.70;;;;;;5086468;28;20021;-70
2023/03/11 02:12:14;;;;;;;0.40;0.20;;;15.30;71.70;;;;;;5054665;28;20033;-71
2023/03/11 02:14:42;;;;;;;0.38;0.30;;;15.30;71.80;;;;;;5069754;28;20380;-70
2023/03/11 02:17:08;;;;;;;0.20;0.20;;;15.30;71.70;;;;;;5069441;28;20021;-71
2023/03/11 02:19:49;;;;;;;2.42;0.20;;;15.30;71.80;;;;;;5085505;28;20052;-70
2023/03/11 02:22:15;;;;;;;0.52;0.13;;;15.30;71.80;;;;;;5083274;28;20027;-71
2023/03/11 02:25:19;;;;;;;0.20;0.20;;;15.30;71.70;;;;;;5069250;28;20111;-70
2023/03/11 02:27:46;;;;;;;1.55;0.40;;;15.30;71.70;;;;;;5052771;28;20365;-71
2023/03/11 02:30:12;;;;;;;1.38;0.40;;;15.30;71.80;;;;;;5086389;28;20082;-70
2023/03/11 02:32:38;;;;;;;0.13;0.13;;;15.30;71.70;;;;;;5069245;28;20028;-70
2023/03/11 02:35:04;;;;;;;0.85;0.30;;;15.30;71.80;;;;;;5070560;28;20083;-71
2023/03/11 02:37:29;;;;;;;0.20;0.17;;;15.30;71.70;;;;;;5054320;28;20029;-71
2023/03/11 02:40:13;;;;;;;0.10;0.10;;;15.30;71.70;;;;;;5052374;28;20147;-70
2023/03/11 02:42:39;;;;;;;0.20;0.20;;;15.30;71.70;;;;;;5052347;28;20032;-71
2023/03/11 02:45:12;;;;;;;0.50;0.30;;;15.20;71.70;;;;;;5035799;28;20033;-71
2023/03/11 02:47:38;;;;;;;0.47;0.20;;;15.20;72.00;;;;;;5053732;28;20528;-71
2023/03/11 02:50:05;;;;;;;1.02;0.30;;;15.20;71.70;;;;;;5068836;28;20128;-71
2023/03/11 02:52:31;;;;;;;0.90;0.20;;;15.20;71.70;;;;;;5068670;28;20025;-71
2023/03/11 02:54:57;;;;;;;0.50;0.30;;;15.20;71.70;;;;;;5068691;28;20021;-70
2023/03/11 02:57:23;;;;;;;2.38;0.35;;;15.20;71.80;;;;;;5069016;28;20425;-70
2023/03/11 02:59:48;;;;;;;0.30;0.30;;;15.20;71.80;;;;;;5053357;28;20079;-70
2023/03/11 03:02:14;;;;;;;0.20;0.20;;;15.20;71.90;;;;;;5085780;28;20036;-70
2023/03/11 03:04:39;;;;;;;0.65;0.25;;;15.20;72.00;;;;;;5068759;28;20025;-70
2023/03/11 03:07:05;;;;;;;0.57;0.28;;;15.20;71.90;;;;;;5085400;28;20431;-70
2023/03/11 03:09:31;;;;;;;0.40;0.28;;;15.30;72.00;;;;;;5053495;28;20025;-70
2023/03/11 03:11:56;;;;;;;0.20;0.20;;;15.20;71.90;;;;;;5068519;28;20052;-70
2023/03/11 03:14:22;;;;;;;0.38;0.20;;;15.20;71.90;;;;;;5053382;28;20028;-70
2023/03/11 03:16:48;;;;;;;10.88;0.45;;;15.20;71.90;;;;;;5050916;28;20033;-70
2023/03/11 03:19:13;;;;;;;0.22;0.20;;;15.20;71.90;;;;;;5051782;28;20400;-70
2023/03/11 03:21:40;;;;;;;0.20;0.20;;;15.20;71.90;;;;;;5052852;28;20120;-70
2023/03/11 03:24:06;;;;;;;0.15;0.15;;;15.20;71.90;;;;;;5053062;28;20100;-70
2023/03/11 03:26:31;;;;;;;0.43;0.20;;;15.20;71.90;;;;;;5053070;28;20158;-70
2023/03/11 03:28:57;;;;;;;0.20;0.20;;;15.20;71.90;;;;;;5051643;28;20455;-70
2023/03/11 03:31:22;;;;;;;1.77;0.20;;;15.20;71.90;;;;;;5052625;28;20116;-70
2023/03/11 03:33:48;;;;;;;0.20;0.20;;;15.20;71.90;;;;;;5052933;28;20097;-70
2023/03/11 03:36:14;;;;;;;0.73;0.40;;;15.20;72.00;;;;;;5051465;28;20087;-71
2023/03/11 03:38:39;;;;;;;0.30;0.17;;;15.20;72.00;;;;;;5051688;28;20146;-70
2023/03/11 03:41:05;;;;;;;0.70;0.20;;;15.20;72.30;;;;;;5051456;28;20481;-70
2023/03/11 03:43:31;;;;;;;0.30;0.20;;;15.20;72.20;;;;;;5051714;28;20399;-70
2023/03/11 03:45:57;;;;;;;0.52;0.20;;;15.20;72.10;;;;;;5052827;28;20029;-70
2023/03/11 03:48:22;;;;;;;0.10;0.10;;;15.20;72.10;;;;;;5052973;28;20027;-70
2023/03/11 03:50:48;;;;;;;0.22;0.10;;;15.20;72.10;;;;;;5067743;28;20417;-70
2023/03/11 03:53:15;;;;;;;0.25;0.25;;;15.10;72.10;;;;;;5084745;28;20064;-70
2023/03/11 03:55:40;;;;;;;0.20;0.20;;;15.10;72.10;;;;;;5085135;28;20032;-70
2023/03/11 03:58:06;;;;;;;0.10;0.10;;;15.20;72.10;;;;;;5085153;28;20057;-70
2023/03/11 04:00:33;;;;;;;0.30;0.20;;;15.10;72.10;;;;;;5084953;28;20107;-70
2023/03/11 04:02:58;;;;;;;0.17;0.10;;;15.20;72.20;;;;;;5084867;28;20075;-70
2023/03/11 04:05:25;;;;;;;0.20;0.20;;;15.10;72.20;;;;;;5068086;28;20033;-70
2023/03/11 04:07:51;;;;;;;0.10;0.10;;;15.10;72.10;;;;;;5084577;28;20019;-70
2023/03/11 04:10:17;;;;;;;0.63;0.30;;;15.10;73.30;;;;;;5068015;28;20453;-70
2023/03/11 04:12:43;;;;;;;0.10;0.10;;;15.10;72.20;;;;;;5068151;28;20142;-70
2023/03/11 04:15:09;;;;;;;1.20;0.15;;;15.10;72.20;;;;;;5067936;28;20025;-70
2023/03/11 04:17:35;;;;;;;0.20;0.20;;;15.10;72.20;;;;;;5084835;28;20408;-70
2023/03/11 04:20:01;;;;;;;0.20;0.20;;;15.10;72.30;;;;;;5067702;28;20381;-70
2023/03/11 04:22:26;;;;;;;0.10;0.10;;;15.10;72.30;;;;;;5084978;28;20032;-70
2023/03/11 04:24:52;;;;;;;0.10;0.10;;;15.10;72.20;;;;;;5052712;28;20028;-70
2023/03/11 04:27:17;;;;;;;0.30;0.30;;;15.10;72.30;;;;;;5084916;28;20029;-70
2023/03/11 04:29:43;;;;;;;0.17;0.10;;;15.10;72.30;;;;;;5084928;28;20017;-70
2023/03/11 04:32:09;;;;;;;0.13;0.13;;;15.10;72.50;;;;;;5084713;28;20159;-70
2023/03/11 04:34:34;;;;;;;0.20;0.20;;;15.10;72.40;;;;;;5084534;28;20078;-70
2023/03/11 04:37:00;;;;;;;1.45;0.20;;;15.10;72.50;;;;;;5052344;28;20036;-70
2023/03/11 04:39:26;;;;;;;0.17;0.17;;;15.10;72.50;;;;;;5084754;28;20412;-70
2023/03/11 04:41:51;;;;;;;0.15;0.15;;;15.10;72.50;;;;;;5084722;28;20040;-70
2023/03/11 04:44:17;;;;;;;0.20;0.20;;;15.10;72.60;;;;;;5054957;28;20032;-70
2023/03/11 04:46:42;;;;;;;0.15;0.10;;;15.10;72.60;;;;;;5088266;28;20032;-70
2023/03/11 04:49:09;;;;;;;0.25;0.20;;;15.10;72.60;;;;;;5088078;28;20033;-70
2023/03/11 04:51:34;;;;;;;0.10;0.10;;;15.10;72.70;;;;;;5088073;28;20550;-70
2023/03/11 04:54:00;;;;;;;0.10;0.10;;;15.10;72.80;;;;;;5088105;28;20029;-70
2023/03/11 04:56:26;;;;;;;0.45;0.40;;;15.10;72.70;;;;;;5088003;28;20083;-70
2023/03/11 04:58:51;;;;;;;2.33;0.95;;;15.10;72.70;;;;;;5055784;28;20033;-70
2023/03/11 05:01:17;;;;;;;0.47;0.20;;;15.10;72.70;;;;;;5055826;28;20040;-70
2023/03/11 05:03:42;;;;;;;0.10;0.10;;;15.10;72.70;;;;;;5070847;28;20028;-70
2023/03/11 05:06:08;;;;;;;0.10;0.10;;;15.10;72.70;;;;;;5088072;28;20017;-70
2023/03/11 05:08:34;;;;;;;0.22;0.22;;;15.10;72.80;;;;;;5055579;28;20443;-70
2023/03/11 05:10:59;;;;;;;0.10;0.00;;;15.10;72.70;;;;;;5071033;28;20484;-70
2023/03/11 05:13:25;;;;;;;0.10;0.10;;;15.10;72.70;;;;;;5087907;28;20071;-70
2023/03/11 05:15:51;;;;;;;0.13;0.10;;;15.10;72.70;;;;;;5070851;28;20112;-70
2023/03/11 05:18:16;;;;;;;0.25;0.20;;;15.10;73.00;;;;;;5055262;28;20376;-70
2023/03/11 05:20:42;;;;;;;0.25;0.10;;;15.10;72.90;;;;;;5070762;28;20056;-71
2023/03/11 05:23:08;;;;;;;0.85;0.20;;;15.10;72.80;;;;;;5087603;28;20024;-70
2023/03/11 05:25:34;;;;;;;0.10;0.10;;;15.10;72.80;;;;;;5087646;28;20025;-70
2023/03/11 05:28:00;;;;;;;0.10;0.10;;;15.10;72.80;;;;;;5087226;28;20028;-70
2023/03/11 05:30:25;;;;;;;1.15;0.30;;;15.10;72.70;;;;;;5087535;28;20048;-70
2023/03/11 05:32:51;;;;;;;0.85;0.30;;;15.10;72.70;;;;;;5054947;28;20033;-70
2023/03/11 05:35:17;;;;;;;0.35;0.10;;;15.10;72.90;;;;;;5070392;28;20493;-70
2023/03/11 05:37:42;;;;;;;0.05;0.05;;;15.10;72.80;;;;;;5070396;28;20021;-70
2023/03/11 05:40:10;;;;;;;0.10;0.10;;;15.10;72.70;;;;;;5087123;28;20029;-70
2023/03/11 05:42:35;;;;;;;0.30;0.17;;;15.10;72.80;;;;;;5086924;28;20045;-70
2023/03/11 05:45:01;;;;;;;0.20;0.20;;;15.10;72.80;;;;;;5070312;28;20441;-70
2023/03/11 05:47:27;;;;;;;0.15;0.10;;;15.10;72.70;;;;;;5069863;28;20025;-69
2023/03/11 05:49:52;;;;;;;0.77;0.10;;;15.10;72.80;;;;;;5086825;28;20124;-70
2023/03/11 05:52:18;;;;;;;0.22;0.20;;;15.10;72.70;;;;;;5053485;28;20075;-70
2023/03/11 05:54:44;;;;;;;0.10;0.10;;;15.10;72.60;;;;;;5086921;28;20040;-70
2023/03/11 05:57:09;;;;;;;0.22;0.17;;;15.10;72.60;;;;;;5060330;28;20031;-70
2023/03/11 05:59:36;;;;;;;0.20;0.13;;;15.10;72.70;;;;;;5061921;28;20036;-70
2023/03/11 06:02:02;;;;;;;0.20;0.20;;;15.10;72.90;;;;;;5063002;28;20043;-70
2023/03/11 06:04:27;;;;;;;2.97;0.17;;;15.10;73.00;;;;;;5063406;28;20400;-70
2023/03/11 06:06:53;;;;;;;0.98;0.10;;;15.00;72.90;;;;;;5063083;28;20021;-70
2023/03/11 06:09:19;;;;;;;0.13;0.13;;;15.00;73.00;;;;;;5044562;28;20032;-70
2023/03/11 06:11:44;;;;;;;0.30;0.20;;;15.00;73.20;;;;;;5061153;28;20028;-71
2023/03/11 06:14:12;;;;;;;0.57;0.10;;;15.10;73.10;;;;;;5044794;28;20493;-70
2023/03/11 06:16:37;;;;;;;1.10;0.20;;;15.00;73.00;;;;;;5061588;28;20069;-70
2023/03/11 06:19:03;;;;;;;0.45;0.45;;;15.00;73.00;;;;;;5061843;28;20033;-69
2023/03/11 06:21:28;;;;;;;0.93;0.20;;;15.00;73.10;;;;;;5061519;28;20025;-70
2023/03/11 06:23:54;;;;;;;0.10;0.05;;;15.00;73.10;;;;;;5060679;28;20029;-69
2023/03/11 06:26:20;;;;;;;0.88;0.20;;;15.00;73.10;;;;;;5044389;28;20033;-70
2023/03/11 06:28:46;;;;;;;0.13;0.10;;;15.00;73.20;;;;;;5044348;28;20031;-70
2023/03/11 06:31:20;;;;;;;2.10;0.22;;;15.00;73.20;;;;;;5044855;28;20021;-70
2023/03/11 06:33:46;;;;;;;0.10;0.10;;;15.00;73.10;;;;;;5059884;28;20021;-70
2023/03/11 06:36:12;;;;;;;0.10;0.10;;;15.00;73.30;;;;;;5061013;28;20021;-70
2023/03/11 06:38:38;;;;;;;0.22;0.10;;;15.00;73.20;;;;;;5061864;28;20037;-70
2023/03/11 06:41:04;;;;;;;0.10;0.10;;;15.00;73.20;;;;;;5061599;28;20441;-70
2023/03/11 06:43:30;;;;;;;0.10;0.10;;;15.00;73.20;;;;;;5044160;28;20029;-70
2023/03/11 06:45:56;;;;;;;1.08;0.20;;;15.00;73.20;;;;;;5060296;28;20048;-70
2023/03/11 06:48:22;;;;;;;0.20;0.20;;;15.00;73.20;;;;;;5060637;28;20114;-70
2023/03/11 06:50:57;;;;;;;0.90;0.20;;;15.00;73.20;;;;;;5043658;28;20078;-70
2023/03/11 06:53:23;;;;;;;1.73;0.17;;;15.00;73.20;;;;;;5043923;28;20035;-70
2023/03/11 06:56:05;;;;;;;0.82;0.10;;;15.00;73.20;;;;;;5060182;28;20024;-70
2023/03/11 06:58:32;;;;;;;0.57;0.20;;;15.00;73.00;;;;;;5059499;28;20554;-70
2023/03/11 07:01:02;;;;;;;0.30;0.25;;;15.00;73.20;;;;;;5041411;28;20287;-70
2023/03/11 07:03:27;;;;;;;0.80;0.10;;;15.00;73.20;;;;;;5043853;28;20020;-70
2023/03/11 07:05:53;;;;;;;1.65;0.85;;;15.00;73.20;;;;;;5059409;28;20029;-70
2023/03/11 07:08:19;;;;;;;0.20;0.17;;;15.00;73.20;;;;;;5061651;28;20043;-70
2023/03/11 07:10:45;;;;;;;1.60;0.20;;;15.00;73.20;;;;;;5062087;28;20186;-70
2023/03/11 07:13:11;;;;;;;0.10;0.10;;;15.00;73.10;;;;;;5061821;28;20016;-70
2023/03/11 07:15:37;;;;;;;0.98;0.20;;;15.00;73.20;;;;;;5060417;28;20021;-71
2023/03/11 07:18:02;;;;;;;3.40;0.40;;;15.00;73.20;;;;;;5061623;28;20083;-71
2023/03/11 07:20:28;;;;;;;7.60;0.20;;;15.10;73.00;;;;;;5059855;28;20539;-71
2023/03/11 07:22:54;;;;;;;0.17;0.10;;;15.10;72.10;;;;;;5059909;28;20515;-70
2023/03/11 07:25:19;;;;;;;1.08;0.15;;;15.10;71.50;;;;;;5059914;28;20031;-69
2023/03/11 07:27:45;;;;;;;0.63;0.10;;;15.10;71.20;;;;;;5059094;28;20036;-69
2023/03/11 07:30:11;;;;;;;0.77;0.20;;;15.10;71.10;;;;;;5056803;28;20035;-69
2023/03/11 07:32:36;;;;;;;2.10;0.10;;;15.10;71.00;;;;;;5060581;28;20017;-69
2023/03/11 07:35:02;;;;;;;0.17;0.10;;;15.20;70.90;;;;;;5061192;28;20454;-69
2023/03/11 07:37:28;;;;;;;2.50;0.20;;;15.20;70.80;;;;;;5043396;28;20492;-70
2023/03/11 07:39:53;;;;;;;0.20;0.10;;;15.20;70.60;;;;;;5060130;28;20078;-70
2023/03/11 07:42:19;;;;;;;0.17;0.10;;;15.30;70.60;;;;;;5058319;28;20017;-70
2023/03/11 07:44:45;;;;;;;0.10;0.10;;;15.20;70.50;;;;;;5060040;28;20021;-71
2023/03/11 07:47:10;;;;;;;0.30;0.20;;;15.30;70.40;;;;;;5059334;28;20368;-70
2023/03/11 07:49:36;;;;;;;0.10;0.10;;;15.30;70.40;;;;;;5059637;28;20043;-70
2023/03/11 07:52:02;;;;;;;0.45;0.20;;;15.30;70.30;;;;;;5060051;28;20028;-71
2023/03/11 07:54:27;;;;;;;0.63;0.10;;;15.30;70.20;;;;;;5060191;28;20086;-70
2023/03/11 07:56:53;;;;;;;0.43;0.28;;;15.40;70.20;;;;;;5059965;28;20025;-70
2023/03/11 07:59:19;;;;;;;1.02;0.20;;;15.40;70.20;;;;;;5060444;28;20484;-71
2023/03/11 08:01:46;;;;;;;0.32;0.20;;;15.40;70.10;;;;;;5059289;28;20017;-70
2023/03/11 08:04:12;;;;;;;1.15;0.10;;;15.40;70.00;;;;;;5059238;28;20021;-70
2023/03/11 08:06:38;;;;;;;10.55;1.80;;;15.40;70.10;;;;;;5042662;28;20028;-70
2023/03/11 08:09:05;;;;;;;43.22;6.38;;;15.40;70.40;;;;;;5061299;28;20016;-73
2023/03/11 08:11:31;;;;;;;42.60;4.97;;;15.50;71.30;;;;;;5055732;28;20024;-70
2023/03/11 08:13:56;;;;;;;23.65;4.57;;;15.50;73.60;;;;;;5050877;28;20029;-71
2023/03/11 08:16:22;;;;;;;24.83;4.07;;;15.50;73.10;;;;;;5052004;28;20381;-69
2023/03/11 08:18:49;;;;;;;18.95;3.88;;;15.60;73.40;;;;;;5054549;28;20087;-68
2023/03/11 08:21:16;;;;;;;25.35;3.88;;;15.60;73.90;;;;;;5054720;28;20494;-69
2023/03/11 08:23:42;;;;;;;20.88;3.63;;;15.70;73.80;;;;;;5054822;28;20104;-70
2023/03/11 08:26:10;;;;;;;21.75;3.35;;;15.70;73.70;;;;;;5052494;28;20017;-71
2023/03/11 08:28:36;;;;;;;17.27;3.25;;;15.70;73.70;;;;;;5070151;28;20116;-70
2023/03/11 08:31:01;;;;;;;15.05;2.80;;;15.70;73.40;;;;;;5069942;28;20096;-71
2023/03/11 08:33:27;;;;;;;15.73;2.72;;;15.70;73.30;;;;;;5069792;28;20124;-70
2023/03/11 08:35:53;;;;;;;10.90;3.13;;;15.70;73.20;;;;;;5054376;28;20064;-70
2023/03/11 08:38:19;;;;;;;16.42;3.20;;;15.70;72.90;;;;;;5036632;28;20029;-71
2023/03/11 08:40:44;;;;;;;14.00;2.60;;;15.80;72.70;;;;;;5054528;28;20025;-71
2023/03/11 08:43:13;;;;;;;20.48;3.20;;;15.80;72.60;;;;;;5052893;28;20031;-71
2023/03/11 08:45:40;;;;;;;8.48;2.63;;;15.80;72.40;;;;;;5070569;28;20017;-71
2023/03/11 08:48:06;;;;;;;8.35;2.25;;;15.80;72.30;;;;;;5054258;28;20029;-71
2023/03/11 08:50:31;;;;;;;13.68;3.38;;;15.80;72.10;;;;;;5037474;28;20079;-71
2023/03/11 08:52:59;;;;;;;10.32;2.30;;;15.80;71.90;;;;;;5055365;28;20032;-71
2023/03/11 08:55:27;;;;;;;11.00;2.13;;;15.80;71.80;;;;;;5055121;28;20021;-71
2023/03/11 08:57:52;;;;;;;12.25;2.38;;;15.80;71.70;;;;;;5052739;28;20029;-71
2023/03/11 09:00:19;;;;;;;9.82;2.33;;;15.80;71.60;;;;;;5055005;28;20380;-71
2023/03/11 09:02:44;;;;;;;11.43;2.25;;;15.80;71.60;;;;;;5054300;28;20082;-71
2023/03/11 09:05:10;;;;;;;8.02;2.20;;;15.80;71.50;;;;;;5037161;28;20404;-71
2023/03/11 09:07:36;;;;;;;9.57;2.22;;;15.80;71.40;;;;;;5055215;28;20074;-71
2023/03/11 09:10:02;;;;;;;11.30;2.28;;;15.80;71.30;;;;;;5053714;28;20512;-71
2023/03/11 09:12:27;;;;;;;9.45;2.50;;;15.90;71.30;;;;;;5037096;28;20354;-71
2023/03/11 09:14:55;;;;;;;7.10;1.60;;;15.90;71.20;;;;;;5053961;28;20036;-71
2023/03/11 09:17:20;;;;;;;7.65;2.20;;;15.90;71.20;;;;;;5053532;28;20023;-71
2023/03/11 09:19:46;;;;;;;7.78;1.77;;;15.90;71.10;;;;;;5053707;28;20017;-71
2023/03/11 09:22:11;;;;;;;10.15;2.08;;;15.90;71.10;;;;;;5053627;28;20032;-71
2023/03/11 09:24:37;;;;;;;7.22;2.00;;;15.90;71.00;;;;;;5053390;28;20028;-70
2023/03/11 09:27:03;;;;;;;6.95;1.55;;;15.90;71.00;;;;;;5054710;28;20083;-71
2023/03/11 09:29:28;;;;;;;8.45;1.80;;;15.90;70.90;;;;;;5053999;28;20029;-71
2023/03/11 09:31:54;;;;;;;4.32;2.00;;;15.90;70.90;;;;;;5054730;28;20060;-70
2023/03/11 09:34:20;;;;;;;3.70;1.70;;;15.90;70.80;;;;;;5053390;28;20025;-71
2023/03/11 09:36:45;;;;;;;5.75;1.60;;;15.90;70.80;;;;;;5053440;28;20033;-71
2023/03/11 09:39:11;;;;;;;5.78;1.55;;;15.90;70.80;;;;;;5054087;28;20056;-71
2023/03/11 09:41:42;;;;;;;6.10;1.75;;;15.90;70.70;;;;;;5054540;28;20025;-71
2023/03/11 09:44:14;;;;;;;5.45;1.77;;;16.00;70.80;;;;;;5054424;28;20021;-71
2023/03/11 09:46:53;;;;;;;5.50;1.52;;;15.90;70.70;;;;;;5054335;28;20086;-70
2023/03/11 09:49:28;;;;;;;8.02;1.85;;;16.00;70.70;;;;;;5037176;28;20108;-71
2023/03/11 09:52:10;;;;;;;4.03;1.40;;;16.00;70.70;;;;;;5036854;28;20384;-71
2023/03/11 09:54:46;;;;;;;4.32;1.20;;;16.00;70.70;;;;;;5052733;28;20451;-71
2023/03/11 09:57:15;;;;;;;2.70;1.20;;;16.00;70.60;;;;;;5037684;28;20037;-71
2023/03/11 09:59:42;;;;;;;5.43;1.60;;;16.00;70.70;;;;;;5052849;28;20024;-71
2023/03/11 10:02:14;;;;;;;4.13;1.80;;;15.90;70.60;;;;;;5036433;28;20052;-71
2023/03/11 10:05:07;;;;;;;4.78;1.80;;;15.90;70.60;;;;;;5037111;28;20021;-71
2023/03/11 10:07:37;;;;;;;3.63;1.35;;;16.00;70.60;;;;;;5053928;28;20025;-71
2023/03/11 10:10:03;;;;;;;7.25;1.35;;;16.00;70.60;;;;;;5036549;28;20079;-71
2023/03/11 10:12:44;;;;;;;3.35;1.30;;;16.00;70.60;;;;;;5019407;28;20377;-71
2023/03/11 10:15:18;;;;;;;2.80;1.25;;;16.00;70.50;;;;;;5053745;28;20028;-70
2023/03/11 10:17:58;;;;;;;4.65;1.35;;;16.00;70.50;;;;;;5036476;28;20021;-71
2023/03/11 10:20:39;;;;;;;3.20;1.33;;;16.00;70.50;;;;;;5053631;28;20098;-70
2023/03/11 10:23:08;;;;;;;2.92;1.33;;;16.00;70.50;;;;;;5053493;28;20021;-70
2023/03/11 10:25:46;;;;;;;1.73;1.05;;;16.00;70.50;;;;;;5052494;28;20323;-71
2023/03/11 10:28:16;;;;;;;3.20;1.30;;;16.00;70.50;;;;;;5036538;28;20025;-71
2023/03/11 10:31:06;;;;;;;2.67;1.17;;;16.00;70.40;;;;;;5036218;28;20033;-71
2023/03/11 10:33:39;;;;;;;2.63;1.17;;;16.00;70.40;;;;;;5052261;28;20025;-71
2023/03/11 10:36:07;;;;;;;3.75;1.35;;;16.00;70.30;;;;;;5052298;28;20055;-71
2023/03/11 10:38:45;;;;;;;4.15;1.38;;;16.00;70.30;;;;;;5035669;28;20025;-71
2023/03/11 10:41:30;;;;;;;1.60;0.82;;;16.00;70.20;;;;;;5035265;28;20075;-71
2023/03/11 10:44:27;;;;;;;2.88;1.42;;;16.00;70.20;;;;;;5053237;28;20488;-71
2023/03/11 10:46:52;;;;;;;3.60;0.90;;;16.00;70.20;;;;;;5036622;28;20029;-71
2023/03/11 10:49:18;;;;;;;1.17;0.90;;;16.00;70.10;;;;;;5052785;28;20492;-71
2023/03/11 10:51:45;;;;;;;2.47;1.20;;;16.00;70.10;;;;;;5051752;28;20021;-71
2023/03/11 10:54:25;;;;;;;2.45;1.10;;;16.00;70.10;;;;;;5051872;28;20021;-71
2023/03/11 10:56:57;;;;;;;2.75;1.25;;;16.00;70.00;;;;;;5052130;28;20045;-70
2023/03/11 10:59:27;;;;;;;2.92;0.85;;;16.00;70.00;;;;;;5051831;28;20028;-70
2023/03/11 11:01:55;;;;;;;1.63;0.90;;;16.00;70.00;;;;;;5051783;28;20025;-70
2023/03/11 11:04:38;;;;;;;3.22;1.20;;;16.00;70.00;;;;;;5035202;28;20392;-71
2023/03/11 11:07:40;;;;;;;2.97;1.10;;;16.00;69.90;;;;;;5051722;28;20013;-71
2023/03/11 11:10:21;;;;;;;2.15;1.05;;;16.00;69.90;;;;;;5014247;28;20057;-70
2023/03/11 11:12:49;;;;;;;4.25;1.25;;;16.00;69.90;;;;;;5014391;28;20107;-71
2023/03/11 11:15:22;;;;;;;2.45;1.00;;;16.00;69.90;;;;;;5030768;28;20025;-71
2023/03/11 11:17:47;;;;;;;1.65;0.70;;;16.10;69.90;;;;;;5014122;28;20033;-70
2023/03/11 11:20:16;;;;;;;2.45;1.10;;;16.00;69.90;;;;;;5030467;28;21014;-70
2023/03/11 11:22:51;;;;;;;4.10;1.30;;;16.10;69.80;;;;;;4997867;28;20025;-70
2023/03/11 11:25:37;;;;;;;1.70;0.75;;;16.10;69.80;;;;;;4998302;28;20096;-70
2023/03/11 11:28:22;;;;;;;3.58;0.90;;;16.10;69.80;;;;;;5014367;28;20021;-70
2023/03/11 11:30:55;;;;;;;3.30;1.05;;;16.10;69.80;;;;;;5014027;28;20436;-70
2023/03/11 11:33:31;;;;;;;;;;;16.10;69.70;;;;;;5030806;28;20117;-70
2023/03/11 11:35:59;;;;;;;2.53;0.80;;;16.10;69.70;;;;;;5030249;28;20403;-70
2023/03/11 11:38:26;;;;;;;2.95;1.10;;;16.10;69.80;;;;;;5013982;28;20041;-70
2023/03/11 11:40:52;;;;;;;2.13;0.95;;;16.10;69.80;;;;;;5030286;28;20072;-70
2023/03/11 11:43:20;;;;;;;1.73;0.88;;;16.10;69.70;;;;;;5002002;28;20114;-70
2023/03/11 11:45:52;;;;;;;2.13;1.08;;;16.10;69.70;;;;;;5034739;28;20024;-70
2023/03/11 11:48:45;;;;;;;1.27;1.00;;;16.10;69.70;;;;;;5035117;28;20027;-70
2023/03/11 11:51:22;;;;;;;2.95;1.27;;;16.10;69.70;;;;;;5051892;28;20045;-71
2023/03/11 11:53:54;;;;;;;1.73;0.85;;;16.10;69.60;;;;;;5050513;28;20064;-70
2023/03/11 11:56:25;;;;;;;2.15;0.93;;;16.10;69.70;;;;;;5035305;28;20032;-70
2023/03/11 11:58:53;;;;;;;1.50;0.90;;;16.00;70.60;;;;;;5034965;28;20084;-70
2023/03/11 12:01:24;;;;;;;1.38;0.80;;;16.10;69.60;;;;;;5050764;28;20075;-70
2023/03/11 12:04:02;;;;;;;1.98;1.05;;;16.10;69.50;;;;;;5050801;28;20025;-70
2023/03/11 12:06:38;;;;;;;3.40;1.23;;;16.10;69.50;;;;;;5051966;28;20025;-70
2023/03/11 12:09:23;;;;;;;3.05;0.88;;;16.10;69.50;;;;;;5035014;28;20127;-70
2023/03/11 12:11:55;;;;;;;1.40;0.80;;;16.10;69.50;;;;;;5035532;28;20439;-70
2023/03/11 12:14:41;;;;;;;1.52;0.90;;;16.10;69.50;;;;;;5050968;28;20029;-70
2023/03/11 12:17:06;;;;;;;1.90;0.80;;;16.10;69.50;;;;;;5050882;28;20033;-70
2023/03/11 12:19:40;;;;;;;2.60;1.13;;;16.10;69.50;;;;;;5034226;28;20055;-70
2023/03/11 12:22:27;;;;;;;2.03;0.90;;;16.10;69.40;;;;;;5050757;28;20499;-70
2023/03/11 12:25:14;;;;;;;1.50;0.80;;;16.10;69.40;;;;;;5052166;28;20021;-70
2023/03/11 12:27:43;;;;;;;2.05;0.85;;;16.10;69.40;;;;;;5051963;28;20036;-70
2023/03/11 12:30:43;;;;;;;2.20;0.88;;;16.10;69.40;;;;;;5034633;28;20018;-70
2023/03/11 12:33:23;;;;;;;1.63;0.90;;;16.10;69.40;;;;;;5042007;28;20037;-70
2023/03/11 12:35:54;;;;;;;2.03;0.80;;;16.10;69.40;;;;;;5051798;28;20374;-70
2023/03/11 12:38:40;;;;;;;3.20;1.02;;;16.10;69.40;;;;;;5034856;28;20053;-71
2023/03/11 12:41:12;;;;;;;2.90;0.80;;;16.10;69.30;;;;;;5050085;28;20045;-70
2023/03/11 12:43:41;;;;;;;1.92;1.13;;;16.10;69.40;;;;;;5050490;28;20021;-70
2023/03/11 12:46:11;;;;;;;1.65;0.70;;;16.10;69.30;;;;;;5051812;28;20068;-70
2023/03/11 12:48:48;;;;;;;2.05;1.10;;;16.10;69.30;;;;;;5034002;28;20123;-70
2023/03/11 12:51:26;;;;;;;2.28;0.77;;;16.10;69.30;;;;;;5051457;28;20060;-70
2023/03/11 12:53:53;;;;;;;2.60;1.02;;;16.10;69.30;;;;;;5051560;28;20031;-70